sensor_id;sensor_type;location;lat;lon;timestamp;pressure;altitude;pressure_sealevel;temperature;humidity
45323;BME280;31382;50.200;8.674;2024-02-23T00:04:26;97933.66;;;10.15;65.85
45323;BME280;31382;50.200;8.674;2024-02-23T00:09:27;97984.28;;;10.11;66.27
45323;BME280;31382;50.200;8.674;2024-02-23T00:14:29;97967.28;;;10.05;65.91
45323;BME280;31382;50.200;8.674;2024-02-23T00:19:32;98006.81;;;9.98;66.80
45323;BME280;31382;50.200;8.674;2024-02-23T00:24:33;97984.06;;;10.01;66.55
45323;BME280;31382;50.200;8.674;2024-02-23T00:29:35;98007.75;;;10.04;66.18
45323;BME280;31382;50.200;8.674;2024-02-23T00:34:38;98024.22;;;10.07;66.23
45323;BME280;31382;50.200;8.674;2024-02-23T00:39:40;98037.88;;;10.06;66.47
45323;BME280;31382;50.200;8.674;2024-02-23T00:44:41;98035.78;;;10.08;66.63
45323;BME280;31382;50.200;8.674;2024-02-23T00:49:42;98038.06;;;9.92;65.89
45323;BME280;31382;50.200;8.674;2024-02-23T00:54:44;98049.34;;;9.83;65.62
45323;BME280;31382;50.200;8.674;2024-02-23T00:59:46;98070.75;;;9.71;64.90
45323;BME280;31382;50.200;8.674;2024-02-23T01:04:47;98079.94;;;9.63;64.51
45323;BME280;31382;50.200;8.674;2024-02-23T01:09:49;98097.81;;;9.69;64.95
45323;BME280;31382;50.200;8.674;2024-02-23T01:14:50;98104.81;;;9.70;64.65
45323;BME280;31382;50.200;8.674;2024-02-23T01:25:06;98136.72;;;8.80;66.04
45323;BME280;31382;50.200;8.674;2024-02-23T01:30:08;98151.06;;;8.67;66.73
45323;BME280;31382;50.200;8.674;2024-02-23T01:35:10;98155.78;;;8.65;66.39
45323;BME280;31382;50.200;8.674;2024-02-23T01:40:12;98159.34;;;8.59;66.19
45323;BME280;31382;50.200;8.674;2024-02-23T01:45:14;98171.13;;;8.51;65.28
45323;BME280;31382;50.200;8.674;2024-02-23T01:50:16;98171.38;;;8.49;65.24
45323;BME280;31382;50.200;8.674;2024-02-23T01:55:20;98179.84;;;8.40;65.56
45323;BME280;31382;50.200;8.674;2024-02-23T02:00:23;98190.16;;;8.36;66.24
45323;BME280;31382;50.200;8.674;2024-02-23T02:05:24;98200.91;;;8.29;65.55
45323;BME280;31382;50.200;8.674;2024-02-23T02:10:26;98206.28;;;8.23;65.40
45323;BME280;31382;50.200;8.674;2024-02-23T02:15:28;98216.59;;;8.19;65.43
45323;BME280;31382;50.200;8.674;2024-02-23T02:20:32;98234.94;;;8.16;65.56
45323;BME280;31382;50.200;8.674;2024-02-23T02:25:34;98250.81;;;8.10;65.58
45323;BME280;31382;50.200;8.674;2024-02-23T02:30:37;98248.78;;;8.06;65.03
45323;BME280;31382;50.200;8.674;2024-02-23T02:35:39;98260.28;;;8.06;65.14
45323;BME280;31382;50.200;8.674;2024-02-23T02:40:41;98255.75;;;8.07;65.65
45323;BME280;31382;50.200;8.674;2024-02-23T02:45:42;98266.69;;;7.99;65.84
45323;BME280;31382;50.200;8.674;2024-02-23T02:50:47;98254.38;;;7.91;65.80
45323;BME280;31382;50.200;8.674;2024-02-23T02:55:54;98277.63;;;7.84;65.81
45323;BME280;31382;50.200;8.674;2024-02-23T03:00:56;98281.38;;;7.76;66.00
45323;BME280;31382;50.200;8.674;2024-02-23T03:05:58;98289.78;;;7.80;65.86
45323;BME280;31382;50.200;8.674;2024-02-23T03:11:00;98282.97;;;7.90;65.70
45323;BME280;31382;50.200;8.674;2024-02-23T03:16:02;98292.03;;;7.96;65.30
45323;BME280;31382;50.200;8.674;2024-02-23T03:21:04;98300.03;;;7.96;65.40
45323;BME280;31382;50.200;8.674;2024-02-23T03:26:07;98283.41;;;7.81;65.24
45323;BME280;31382;50.200;8.674;2024-02-23T03:31:09;98280.75;;;7.67;65.87
45323;BME280;31382;50.200;8.674;2024-02-23T03:36:11;98279.13;;;7.66;65.62
45323;BME280;31382;50.200;8.674;2024-02-23T03:41:13;98281.78;;;7.73;65.15
45323;BME280;31382;50.200;8.674;2024-02-23T03:46:15;98288.16;;;7.79;65.47
45323;BME280;31382;50.200;8.674;2024-02-23T03:51:18;98282.97;;;7.84;65.06
45323;BME280;31382;50.200;8.674;2024-02-23T03:56:19;98300.69;;;7.85;65.19
45323;BME280;31382;50.200;8.674;2024-02-23T04:01:21;98296.16;;;7.85;64.92
45323;BME280;31382;50.200;8.674;2024-02-23T04:06:23;98287.75;;;7.75;65.58
45323;BME280;31382;50.200;8.674;2024-02-23T04:11:24;98297.44;;;7.63;66.03
45323;BME280;31382;50.200;8.674;2024-02-23T04:16:26;98297.22;;;7.58;65.96
45323;BME280;31382;50.200;8.674;2024-02-23T04:21:28;98303.00;;;7.54;66.25
45323;BME280;31382;50.200;8.674;2024-02-23T04:26:30;98301.97;;;7.49;66.33
45323;BME280;31382;50.200;8.674;2024-02-23T04:31:32;98305.06;;;7.52;66.82
45323;BME280;31382;50.200;8.674;2024-02-23T04:36:33;98294.75;;;7.56;66.64
45323;BME280;31382;50.200;8.674;2024-02-23T04:41:35;98299.09;;;7.57;66.45
45323;BME280;31382;50.200;8.674;2024-02-23T04:46:37;98299.91;;;7.58;66.90
45323;BME280;31382;50.200;8.674;2024-02-23T04:51:39;98298.88;;;7.52;66.92
45323;BME280;31382;50.200;8.674;2024-02-23T04:56:40;98295.78;;;7.48;67.29
45323;BME280;31382;50.200;8.674;2024-02-23T05:01:42;98290.66;;;7.40;67.15
45323;BME280;31382;50.200;8.674;2024-02-23T05:06:44;98302.59;;;7.31;66.79
45323;BME280;31382;50.200;8.674;2024-02-23T05:11:47;98307.72;;;7.19;67.64
45323;BME280;31382;50.200;8.674;2024-02-23T05:16:49;98313.91;;;7.13;67.56
45323;BME280;31382;50.200;8.674;2024-02-23T05:21:52;98316.16;;;7.16;67.83
45323;BME280;31382;50.200;8.674;2024-02-23T05:26:54;98324.59;;;7.13;67.23
45323;BME280;31382;50.200;8.674;2024-02-23T05:31:56;98332.59;;;7.13;67.85
45323;BME280;31382;50.200;8.674;2024-02-23T05:36:57;98340.38;;;7.08;67.63
45323;BME280;31382;50.200;8.674;2024-02-23T05:41:59;98347.38;;;7.15;67.81
45323;BME280;31382;50.200;8.674;2024-02-23T05:47:01;98345.13;;;7.19;67.33
45323;BME280;31382;50.200;8.674;2024-02-23T05:52:03;98338.75;;;7.13;67.40
45323;BME280;31382;50.200;8.674;2024-02-23T05:57:05;98343.69;;;7.10;67.17
45323;BME280;31382;50.200;8.674;2024-02-23T06:02:06;98351.28;;;7.06;67.82
45323;BME280;31382;50.200;8.674;2024-02-23T06:07:08;98355.22;;;7.17;67.65
45323;BME280;31382;50.200;8.674;2024-02-23T06:12:10;98364.25;;;7.29;67.65
45323;BME280;31382;50.200;8.674;2024-02-23T06:17:11;98370.63;;;7.42;67.97
45323;BME280;31382;50.200;8.674;2024-02-23T06:22:13;98374.97;;;7.49;67.58
45323;BME280;31382;50.200;8.674;2024-02-23T06:27:18;98372.91;;;7.58;67.83
45323;BME280;31382;50.200;8.674;2024-02-23T06:32:20;98379.28;;;7.64;68.23
45323;BME280;31382;50.200;8.674;2024-02-23T06:37:22;98400.91;;;7.62;67.54
45323;BME280;31382;50.200;8.674;2024-02-23T06:42:24;98410.94;;;7.60;67.78
45323;BME280;31382;50.200;8.674;2024-02-23T06:47:26;98423.13;;;7.76;67.50
45323;BME280;31382;50.200;8.674;2024-02-23T06:52:28;98421.06;;;7.78;68.13
45323;BME280;31382;50.200;8.674;2024-02-23T06:57:29;98415.69;;;7.91;67.79
45323;BME280;31382;50.200;8.674;2024-02-23T07:02:32;98413.22;;;7.97;67.66
45323;BME280;31382;50.200;8.674;2024-02-23T07:07:37;98430.28;;;7.95;67.43
45323;BME280;31382;50.200;8.674;2024-02-23T07:12:41;98427.63;;;7.95;67.29
45323;BME280;31382;50.200;8.674;2024-02-23T07:17:45;98431.34;;;7.94;67.94
45323;BME280;31382;50.200;8.674;2024-02-23T07:22:46;98429.88;;;8.05;67.43
45323;BME280;31382;50.200;8.674;2024-02-23T07:27:48;98429.88;;;8.05;67.67
45323;BME280;31382;50.200;8.674;2024-02-23T07:32:50;98426.19;;;8.06;67.48
45323;BME280;31382;50.200;8.674;2024-02-23T07:37:55;98407.03;;;8.16;67.24
45323;BME280;31382;50.200;8.674;2024-02-23T07:42:56;98412.16;;;8.24;66.70
45323;BME280;31382;50.200;8.674;2024-02-23T07:47:58;98421.81;;;8.32;66.35
45323;BME280;31382;50.200;8.674;2024-02-23T07:53:00;98428.41;;;8.36;66.26
45323;BME280;31382;50.200;8.674;2024-02-23T07:58:02;98432.75;;;8.44;65.77
45323;BME280;31382;50.200;8.674;2024-02-23T08:03:04;98446.72;;;8.52;65.21
45323;BME280;31382;50.200;8.674;2024-02-23T08:08:06;98445.88;;;8.59;65.16
45323;BME280;31382;50.200;8.674;2024-02-23T08:13:08;98459.06;;;8.67;64.57
45323;BME280;31382;50.200;8.674;2024-02-23T08:18:12;98459.22;;;8.72;64.53
45323;BME280;31382;50.200;8.674;2024-02-23T08:23:14;98457.56;;;8.78;64.06
45323;BME280;31382;50.200;8.674;2024-02-23T08:28:17;98460.81;;;8.86;63.50
45323;BME280;31382;50.200;8.674;2024-02-23T08:33:18;98454.66;;;8.86;63.79
45323;BME280;31382;50.200;8.674;2024-02-23T08:38:21;98462.03;;;8.90;63.25
45323;BME280;31382;50.200;8.674;2024-02-23T08:43:23;98466.34;;;8.98;62.97
45323;BME280;31382;50.200;8.674;2024-02-23T08:48:24;98467.34;;;9.04;62.52
45323;BME280;31382;50.200;8.674;2024-02-23T08:53:26;98470.47;;;9.01;62.35
45323;BME280;31382;50.200;8.674;2024-02-23T08:58:28;98469.66;;;8.93;62.13
45323;BME280;31382;50.200;8.674;2024-02-23T09:03:30;98475.22;;;8.99;62.02
45323;BME280;31382;50.200;8.674;2024-02-23T09:08:32;98476.88;;;9.00;61.69
45323;BME280;31382;50.200;8.674;2024-02-23T09:13:34;98481.56;;;9.11;61.74
45323;BME280;31382;50.200;8.674;2024-02-23T09:18:36;98479.50;;;9.13;61.80
45323;BME280;31382;50.200;8.674;2024-02-23T09:23:37;98480.16;;;9.08;61.65
45323;BME280;31382;50.200;8.674;2024-02-23T09:28:39;98472.28;;;9.13;61.57
45323;BME280;31382;50.200;8.674;2024-02-23T09:33:43;98474.69;;;9.22;61.29
45323;BME280;31382;50.200;8.674;2024-02-23T09:38:45;98462.56;;;9.19;61.06
45323;BME280;31382;50.200;8.674;2024-02-23T09:43:47;98461.38;;;9.47;60.38
45323;BME280;31382;50.200;8.674;2024-02-23T09:48:56;98451.69;;;9.78;60.05
45323;BME280;31382;50.200;8.674;2024-02-23T09:53:57;98450.59;;;10.10;59.32
45323;BME280;31382;50.200;8.674;2024-02-23T09:59:01;98456.44;;;10.26;59.24
45323;BME280;31382;50.200;8.674;2024-02-23T10:04:04;98455.91;;;10.42;58.35
45323;BME280;31382;50.200;8.674;2024-02-23T10:09:07;98462.19;;;10.55;58.14
45323;BME280;31382;50.200;8.674;2024-02-23T10:14:09;98458.09;;;10.70;57.99
45323;BME280;31382;50.200;8.674;2024-02-23T10:19:10;98451.06;;;10.69;57.25
45323;BME280;31382;50.200;8.674;2024-02-23T10:24:12;98456.00;;;10.91;56.84
45323;BME280;31382;50.200;8.674;2024-02-23T10:29:14;98440.47;;;11.23;56.10
45323;BME280;31382;50.200;8.674;2024-02-23T10:34:19;98449.03;;;11.02;55.66
45323;BME280;31382;50.200;8.674;2024-02-23T10:39:24;98449.22;;;10.88;55.46
45323;BME280;31382;50.200;8.674;2024-02-23T10:44:27;98454.91;;;10.80;55.79
45323;BME280;31382;50.200;8.674;2024-02-23T10:49:30;98457.34;;;10.82;55.23
45323;BME280;31382;50.200;8.674;2024-02-23T10:54:33;98456.75;;;10.98;55.06
45323;BME280;31382;50.200;8.674;2024-02-23T10:59:35;98455.38;;;11.26;54.31
45323;BME280;31382;50.200;8.674;2024-02-23T11:04:37;98444.38;;;11.58;54.05
45323;BME280;31382;50.200;8.674;2024-02-23T11:09:39;98435.94;;;12.08;53.52
45323;BME280;31382;50.200;8.674;2024-02-23T11:14:44;98430.78;;;12.06;53.04
45323;BME280;31382;50.200;8.674;2024-02-23T11:19:46;98429.97;;;12.06;53.18
45323;BME280;31382;50.200;8.674;2024-02-23T11:24:50;98419.31;;;12.23;52.57
45323;BME280;31382;50.200;8.674;2024-02-23T11:30:03;98416.03;;;12.21;52.74
45323;BME280;31382;50.200;8.674;2024-02-23T11:35:12;98434.41;;;12.00;53.17
45323;BME280;31382;50.200;8.674;2024-02-23T11:40:17;98434.75;;;11.92;52.90
45323;BME280;31382;50.200;8.674;2024-02-23T11:45:19;98434.81;;;11.74;53.41
45323;BME280;31382;50.200;8.674;2024-02-23T11:50:20;98441.22;;;11.30;53.96
45323;BME280;31382;50.200;8.674;2024-02-23T11:55:22;98441.38;;;11.17;54.25
45323;BME280;31382;50.200;8.674;2024-02-23T12:00:25;98475.63;;;10.55;56.35
45323;BME280;31382;50.200;8.674;2024-02-23T12:05:26;98474.22;;;8.86;61.48
45323;BME280;31382;50.200;8.674;2024-02-23T12:10:28;98466.88;;;8.75;62.54
45323;BME280;31382;50.200;8.674;2024-02-23T12:15:30;98462.81;;;8.46;64.00
45323;BME280;31382;50.200;8.674;2024-02-23T12:20:35;98462.56;;;8.41;64.47
45323;BME280;31382;50.200;8.674;2024-02-23T12:25:37;98461.16;;;8.25;65.27
45323;BME280;31382;50.200;8.674;2024-02-23T12:30:43;98452.50;;;8.36;65.46
45323;BME280;31382;50.200;8.674;2024-02-23T12:35:44;98452.69;;;8.54;65.62
45323;BME280;31382;50.200;8.674;2024-02-23T12:40:46;98451.63;;;8.62;65.56
45323;BME280;31382;50.200;8.674;2024-02-23T12:45:47;98435.09;;;8.79;65.82
45323;BME280;31382;50.200;8.674;2024-02-23T12:50:52;98438.78;;;8.84;66.42
45323;BME280;31382;50.200;8.674;2024-02-23T12:55:55;98433.63;;;8.89;66.91
45323;BME280;31382;50.200;8.674;2024-02-23T13:00:56;98432.22;;;9.25;66.46
45323;BME280;31382;50.200;8.674;2024-02-23T13:05:58;98428.59;;;9.45;66.45
45323;BME280;31382;50.200;8.674;2024-02-23T13:11:00;98429.75;;;9.56;66.07
45323;BME280;31382;50.200;8.674;2024-02-23T13:16:02;98423.03;;;9.71;66.01
45323;BME280;31382;50.200;8.674;2024-02-23T13:21:03;98425.69;;;10.22;64.88
45323;BME280;31382;50.200;8.674;2024-02-23T13:26:06;98416.09;;;11.06;63.23
45323;BME280;31382;50.200;8.674;2024-02-23T13:31:07;98416.06;;;11.25;62.74
45323;BME280;31382;50.200;8.674;2024-02-23T13:36:09;98422.97;;;11.75;61.50
45323;BME280;31382;50.200;8.674;2024-02-23T13:41:10;98421.03;;;11.40;61.32
45323;BME280;31382;50.200;8.674;2024-02-23T13:46:13;98419.84;;;11.36;60.37
45323;BME280;31382;50.200;8.674;2024-02-23T13:51:14;98418.19;;;12.71;56.66
45323;BME280;31382;50.200;8.674;2024-02-23T13:56:16;98408.38;;;14.14;54.45
45323;BME280;31382;50.200;8.674;2024-02-23T14:01:17;98395.34;;;15.97;51.46
45323;BME280;31382;50.200;8.674;2024-02-23T14:06:19;98411.56;;;14.11;54.87
45323;BME280;31382;50.200;8.674;2024-02-23T14:11:20;98417.41;;;13.68;54.20
45323;BME280;31382;50.200;8.674;2024-02-23T14:16:22;98407.31;;;12.66;53.81
45323;BME280;31382;50.200;8.674;2024-02-23T14:21:24;98413.78;;;12.41;53.34
45323;BME280;31382;50.200;8.674;2024-02-23T14:26:26;98412.50;;;12.44;53.25
45323;BME280;31382;50.200;8.674;2024-02-23T14:31:28;98401.63;;;12.27;53.41
45323;BME280;31382;50.200;8.674;2024-02-23T14:36:30;98397.19;;;11.97;53.62
45323;BME280;31382;50.200;8.674;2024-02-23T14:41:35;98387.56;;;11.89;54.30
45323;BME280;31382;50.200;8.674;2024-02-23T14:46:36;98390.34;;;11.83;54.20
45323;BME280;31382;50.200;8.674;2024-02-23T14:51:39;98381.25;;;11.96;54.35
45323;BME280;31382;50.200;8.674;2024-02-23T14:56:44;98385.94;;;12.00;53.95
45323;BME280;31382;50.200;8.674;2024-02-23T15:01:45;98374.81;;;12.84;52.53
45323;BME280;31382;50.200;8.674;2024-02-23T15:06:47;98362.22;;;13.81;50.52
45323;BME280;31382;50.200;8.674;2024-02-23T15:11:48;98362.47;;;13.80;50.94
45323;BME280;31382;50.200;8.674;2024-02-23T15:16:50;98363.47;;;13.57;50.95
45323;BME280;31382;50.200;8.674;2024-02-23T15:21:52;98356.41;;;14.45;50.33
45323;BME280;31382;50.200;8.674;2024-02-23T15:26:54;98354.31;;;14.14;51.76
45323;BME280;31382;50.200;8.674;2024-02-23T15:31:56;98363.69;;;13.38;52.78
45323;BME280;31382;50.200;8.674;2024-02-23T15:36:57;98353.88;;;13.83;52.01
45323;BME280;31382;50.200;8.674;2024-02-23T15:41:59;98350.00;;;14.96;49.89
45323;BME280;31382;50.200;8.674;2024-02-23T15:47:00;98361.44;;;14.59;51.42
45323;BME280;31382;50.200;8.674;2024-02-23T15:52:02;98362.78;;;14.78;51.53
45323;BME280;31382;50.200;8.674;2024-02-23T15:57:04;98366.50;;;14.72;51.54
45323;BME280;31382;50.200;8.674;2024-02-23T16:02:07;98376.69;;;14.48;51.71
45323;BME280;31382;50.200;8.674;2024-02-23T16:07:09;98380.56;;;13.96;52.29
45323;BME280;31382;50.200;8.674;2024-02-23T16:12:11;98386.56;;;13.36;52.92
45323;BME280;31382;50.200;8.674;2024-02-23T16:17:13;98393.09;;;12.82;53.47
45323;BME280;31382;50.200;8.674;2024-02-23T16:22:15;98384.06;;;12.36;53.99
45323;BME280;31382;50.200;8.674;2024-02-23T16:27:16;98385.47;;;12.03;54.89
45323;BME280;31382;50.200;8.674;2024-02-23T16:32:17;98391.59;;;11.68;54.87
45323;BME280;31382;50.200;8.674;2024-02-23T16:37:19;98399.25;;;11.41;55.36
45323;BME280;31382;50.200;8.674;2024-02-23T16:42:21;98405.41;;;11.18;55.93
45323;BME280;31382;50.200;8.674;2024-02-23T16:47:22;98408.03;;;11.06;56.21
45323;BME280;31382;50.200;8.674;2024-02-23T16:52:23;98400.94;;;10.94;56.44
45323;BME280;31382;50.200;8.674;2024-02-23T16:57:26;98406.41;;;10.87;56.21
45323;BME280;31382;50.200;8.674;2024-02-23T17:02:27;98396.41;;;10.76;57.01
45323;BME280;31382;50.200;8.674;2024-02-23T17:07:29;98390.00;;;10.58;57.37
45323;BME280;31382;50.200;8.674;2024-02-23T17:12:31;98396.66;;;10.37;57.68
45323;BME280;31382;50.200;8.674;2024-02-23T17:17:32;98403.63;;;10.20;58.00
45323;BME280;31382;50.200;8.674;2024-02-23T17:22:34;98396.16;;;10.22;57.78
45323;BME280;31382;50.200;8.674;2024-02-23T17:27:35;98406.91;;;10.22;58.05
45323;BME280;31382;50.200;8.674;2024-02-23T17:32:38;98395.78;;;10.18;58.39
45323;BME280;31382;50.200;8.674;2024-02-23T17:37:39;98398.69;;;10.17;58.11
45323;BME280;31382;50.200;8.674;2024-02-23T17:42:40;98412.63;;;10.07;58.47
45323;BME280;31382;50.200;8.674;2024-02-23T17:47:42;98410.81;;;10.01;58.42
45323;BME280;31382;50.200;8.674;2024-02-23T17:52:43;98408.81;;;9.96;59.07
45323;BME280;31382;50.200;8.674;2024-02-23T17:57:45;98417.84;;;10.02;58.94
45323;BME280;31382;50.200;8.674;2024-02-23T18:02:47;98417.38;;;10.05;58.96
45323;BME280;31382;50.200;8.674;2024-02-23T18:07:48;98433.13;;;10.01;59.29
45323;BME280;31382;50.200;8.674;2024-02-23T18:12:50;98438.75;;;9.93;59.29
45323;BME280;31382;50.200;8.674;2024-02-23T18:17:52;98436.31;;;9.91;59.66
45323;BME280;31382;50.200;8.674;2024-02-23T18:22:54;98430.81;;;9.80;59.85
45323;BME280;31382;50.200;8.674;2024-02-23T18:27:56;98434.63;;;9.65;60.36
45323;BME280;31382;50.200;8.674;2024-02-23T18:32:58;98436.56;;;9.51;60.54
45323;BME280;31382;50.200;8.674;2024-02-23T18:37:59;98443.88;;;9.38;60.63
45323;BME280;31382;50.200;8.674;2024-02-23T18:43:01;98440.09;;;9.20;60.99
45323;BME280;31382;50.200;8.674;2024-02-23T18:48:03;98448.28;;;9.25;60.93
45323;BME280;31382;50.200;8.674;2024-02-23T18:53:05;98448.44;;;9.37;60.63
45323;BME280;31382;50.200;8.674;2024-02-23T18:58:06;98458.91;;;9.45;60.43
45323;BME280;31382;50.200;8.674;2024-02-23T19:03:09;98453.41;;;9.33;60.80
45323;BME280;31382;50.200;8.674;2024-02-23T19:08:10;98446.00;;;9.29;60.87
45323;BME280;31382;50.200;8.674;2024-02-23T19:13:12;98456.94;;;9.34;60.85
45323;BME280;31382;50.200;8.674;2024-02-23T19:18:13;98461.63;;;9.39;60.88
45323;BME280;31382;50.200;8.674;2024-02-23T19:23:15;98453.31;;;9.47;60.83
45323;BME280;31382;50.200;8.674;2024-02-23T19:28:17;98453.50;;;9.52;60.55
45323;BME280;31382;50.200;8.674;2024-02-23T19:33:19;98456.19;;;9.52;60.83
45323;BME280;31382;50.200;8.674;2024-02-23T19:38:20;98445.88;;;9.49;60.73
45323;BME280;31382;50.200;8.674;2024-02-23T19:43:22;98444.50;;;9.40;60.85
45323;BME280;31382;50.200;8.674;2024-02-23T19:48:23;98437.53;;;9.32;61.07
45323;BME280;31382;50.200;8.674;2024-02-23T19:53:25;98441.50;;;9.23;61.15
45323;BME280;31382;50.200;8.674;2024-02-23T19:58:26;98447.72;;;9.17;61.25
45323;BME280;31382;50.200;8.674;2024-02-23T20:03:28;98451.28;;;9.04;61.38
45323;BME280;31382;50.200;8.674;2024-02-23T20:08:30;98448.88;;;8.89;61.51
45323;BME280;31382;50.200;8.674;2024-02-23T20:13:31;98450.56;;;8.77;61.73
45323;BME280;31382;50.200;8.674;2024-02-23T20:18:33;98448.75;;;8.64;61.91
45323;BME280;31382;50.200;8.674;2024-02-23T20:23:34;98453.13;;;8.51;62.10
45323;BME280;31382;50.200;8.674;2024-02-23T20:28:36;98449.19;;;8.41;62.30
45323;BME280;31382;50.200;8.674;2024-02-23T20:33:37;98452.53;;;8.29;62.17
45323;BME280;31382;50.200;8.674;2024-02-23T20:38:41;98446.94;;;8.24;62.17
45323;BME280;31382;50.200;8.674;2024-02-23T20:43:43;98452.72;;;8.14;62.40
45323;BME280;31382;50.200;8.674;2024-02-23T20:48:46;98448.22;;;8.08;62.69
45323;BME280;31382;50.200;8.674;2024-02-23T20:53:48;98439.97;;;8.03;62.47
45323;BME280;31382;50.200;8.674;2024-02-23T20:58:49;98446.34;;;7.89;62.98
45323;BME280;31382;50.200;8.674;2024-02-23T21:03:51;98442.88;;;7.68;63.74
45323;BME280;31382;50.200;8.674;2024-02-23T21:08:53;98445.28;;;7.50;63.55
45323;BME280;31382;50.200;8.674;2024-02-23T21:13:54;98460.06;;;7.32;64.06
45323;BME280;31382;50.200;8.674;2024-02-23T21:18:56;98458.81;;;7.22;63.74
45323;BME280;31382;50.200;8.674;2024-02-23T21:23:58;98456.50;;;7.12;64.04
45323;BME280;31382;50.200;8.674;2024-02-23T21:29:04;98453.41;;;7.02;63.67
45323;BME280;31382;50.200;8.674;2024-02-23T21:34:06;98461.59;;;6.93;64.61
45323;BME280;31382;50.200;8.674;2024-02-23T21:39:07;98459.47;;;6.75;64.73
45323;BME280;31382;50.200;8.674;2024-02-23T21:44:09;98463.75;;;6.70;64.76
45323;BME280;31382;50.200;8.674;2024-02-23T21:49:11;98457.97;;;6.66;64.67
45323;BME280;31382;50.200;8.674;2024-02-23T21:54:12;98453.00;;;6.57;65.45
45323;BME280;31382;50.200;8.674;2024-02-23T21:59:14;98456.78;;;6.41;64.69
45323;BME280;31382;50.200;8.674;2024-02-23T22:04:15;98462.81;;;6.21;65.42
45323;BME280;31382;50.200;8.674;2024-02-23T22:09:17;98462.97;;;6.13;65.28
45323;BME280;31382;50.200;8.674;2024-02-23T22:14:18;98469.59;;;5.95;65.50
45323;BME280;31382;50.200;8.674;2024-02-23T22:19:20;98458.47;;;5.92;66.01
45323;BME280;31382;50.200;8.674;2024-02-23T22:24:21;98466.16;;;5.80;65.99
45323;BME280;31382;50.200;8.674;2024-02-23T22:29:24;98461.38;;;5.69;66.87
45323;BME280;31382;50.200;8.674;2024-02-23T22:34:26;98456.13;;;5.61;66.90
45323;BME280;31382;50.200;8.674;2024-02-23T22:39:28;98472.03;;;5.47;66.59
45323;BME280;31382;50.200;8.674;2024-02-23T22:44:29;98477.66;;;5.38;66.93
45323;BME280;31382;50.200;8.674;2024-02-23T22:49:31;98470.78;;;5.28;66.89
45323;BME280;31382;50.200;8.674;2024-02-23T22:54:33;98462.81;;;5.28;66.93
45323;BME280;31382;50.200;8.674;2024-02-23T22:59:35;98459.22;;;5.21;66.93
45323;BME280;31382;50.200;8.674;2024-02-23T23:04:36;98481.97;;;5.02;67.10
45323;BME280;31382;50.200;8.674;2024-02-23T23:09:38;98479.66;;;4.99;67.58
45323;BME280;31382;50.200;8.674;2024-02-23T23:14:39;98485.19;;;4.97;67.56
45323;BME280;31382;50.200;8.674;2024-02-23T23:19:41;98494.94;;;4.75;68.48
45323;BME280;31382;50.200;8.674;2024-02-23T23:24:42;98509.09;;;4.76;68.46
45323;BME280;31382;50.200;8.674;2024-02-23T23:29:44;98508.59;;;4.87;67.95
45323;BME280;31382;50.200;8.674;2024-02-23T23:34:45;98513.56;;;4.90;68.09
45323;BME280;31382;50.200;8.674;2024-02-23T23:39:47;98519.72;;;4.91;68.43
45323;BME280;31382;50.200;8.674;2024-02-23T23:44:48;98497.84;;;4.95;67.79
45323;BME280;31382;50.200;8.674;2024-02-23T23:49:50;98490.13;;;5.01;68.13
45323;BME280;31382;50.200;8.674;2024-02-23T23:54:51;98481.50;;;4.99;67.52
45323;BME280;31382;50.200;8.674;2024-02-23T23:59:53;98478.50;;;5.02;67.72
